createdAt,value
2019-04-29T00:02:09.479Z,8.80
2019-04-29T00:04:39.626Z,8.80
2019-04-29T00:07:09.828Z,8.90
2019-04-29T00:09:40.073Z,8.90
2019-04-29T00:12:10.297Z,8.80
2019-04-29T00:14:42.248Z,8.80
2019-04-29T00:17:16.768Z,8.80
2019-04-29T00:20:04.412Z,8.90
2019-04-29T00:22:34.752Z,8.90
2019-04-29T00:25:05.616Z,8.90
2019-04-29T00:27:35.748Z,8.90
2019-04-29T00:30:11.076Z,9.00
2019-04-29T00:32:41.208Z,9.00
2019-04-29T00:35:12.353Z,9.10
2019-04-29T00:38:02.164Z,9.10
2019-04-29T00:40:48.471Z,9.10
2019-04-29T00:43:31.862Z,9.10
2019-04-29T00:46:02.145Z,9.00
2019-04-29T00:48:32.216Z,8.90
2019-04-29T00:51:02.428Z,9.00
2019-04-29T00:53:32.751Z,9.00
2019-04-29T00:56:03.577Z,9.00
2019-04-29T00:58:33.652Z,9.00
2019-04-29T01:01:07.243Z,8.90
2019-04-29T01:03:37.469Z,8.80
2019-04-29T01:06:07.690Z,8.70
2019-04-29T01:08:37.828Z,8.70
2019-04-29T01:11:08.035Z,8.70
2019-04-29T01:13:38.245Z,8.70
2019-04-29T01:16:08.388Z,8.70
2019-04-29T01:18:38.557Z,8.70
2019-04-29T01:21:08.681Z,8.60
2019-04-29T01:23:38.865Z,8.70
2019-04-29T01:26:10.740Z,8.70
2019-04-29T01:28:45.928Z,8.70
2019-04-29T01:31:17.701Z,8.70
2019-04-29T01:33:49.511Z,8.70
2019-04-29T01:36:24.024Z,8.80
2019-04-29T01:38:55.879Z,8.80
2019-04-29T01:41:30.234Z,8.80
2019-04-29T01:44:04.552Z,8.80
2019-04-29T01:46:34.846Z,8.90
2019-04-29T01:49:05.145Z,8.90
2019-04-29T01:51:35.453Z,8.80
2019-04-29T01:54:05.688Z,8.80
2019-04-29T01:56:35.836Z,8.90
2019-04-29T01:59:06.076Z,8.90
2019-04-29T02:01:36.217Z,8.90
2019-04-29T02:04:06.504Z,8.90
2019-04-29T02:06:36.576Z,8.80
2019-04-29T02:09:10.221Z,8.90
2019-04-29T02:11:40.855Z,8.90
2019-04-29T02:14:11.076Z,8.90
2019-04-29T02:16:41.137Z,9.00
2019-04-29T02:19:11.292Z,9.00
2019-04-29T02:21:42.996Z,8.90
2019-04-29T02:24:17.944Z,8.90
2019-04-29T02:26:47.935Z,8.90
2019-04-29T02:29:18.114Z,9.00
2019-04-29T02:31:48.364Z,9.00
2019-04-29T02:34:19.066Z,9.10
2019-04-29T02:36:49.198Z,9.10
2019-04-29T02:39:23.697Z,9.10
2019-04-29T02:41:58.485Z,9.10
2019-04-29T02:44:28.674Z,9.10
2019-04-29T02:46:58.817Z,9.10
2019-04-29T02:49:28.976Z,9.20
2019-04-29T02:51:59.114Z,9.30
2019-04-29T02:54:30.128Z,9.30
2019-04-29T02:57:01.891Z,9.20
2019-04-29T02:59:34.752Z,9.20
2019-04-29T03:02:06.741Z,9.20
2019-04-29T03:04:54.557Z,9.10
2019-04-29T03:07:23.896Z,9.20
2019-04-29T03:09:54.017Z,9.10
2019-04-29T03:12:24.636Z,9.10
2019-04-29T03:14:54.729Z,9.20
2019-04-29T03:17:24.937Z,9.20
2019-04-29T03:20:08.412Z,9.10
2019-04-29T03:22:45.656Z,9.20
2019-04-29T03:25:14.940Z,9.20
2019-04-29T03:27:44.918Z,9.10
2019-04-29T03:30:15.169Z,9.10
2019-04-29T03:32:45.321Z,9.10
2019-04-29T03:35:15.514Z,9.00
2019-04-29T03:37:45.661Z,9.00
2019-04-29T03:40:15.818Z,8.90
2019-04-29T03:42:45.976Z,8.90
2019-04-29T03:45:16.130Z,8.90
2019-04-29T03:47:46.257Z,8.90
2019-04-29T03:50:16.421Z,8.90
2019-04-29T03:52:46.704Z,9.00
2019-04-29T03:55:16.922Z,8.90
2019-04-29T03:57:47.065Z,8.80
2019-04-29T04:00:18.346Z,8.80
2019-04-29T04:03:01.849Z,8.80
2019-04-29T04:05:33.555Z,8.80
2019-04-29T04:08:17.388Z,8.70
2019-04-29T04:10:47.514Z,8.80
2019-04-29T04:13:17.669Z,8.90
2019-04-29T04:15:47.876Z,8.90
2019-04-29T04:18:25.387Z,8.90
2019-04-29T04:20:55.487Z,8.90
2019-04-29T04:23:25.730Z,8.80
2019-04-29T04:25:55.936Z,8.80
2019-04-29T04:28:26.037Z,8.90
2019-04-29T04:30:56.230Z,8.90
2019-04-29T04:33:26.381Z,8.90
2019-04-29T04:35:56.516Z,8.80
2019-04-29T04:38:26.589Z,8.80
2019-04-29T04:41:07.002Z,8.80
2019-04-29T04:43:37.145Z,8.80
2019-04-29T04:46:07.353Z,8.90
2019-04-29T04:48:37.593Z,9.00
2019-04-29T04:51:07.741Z,9.10
2019-04-29T04:53:37.817Z,9.10
2019-04-29T04:56:07.900Z,9.10
2019-04-29T04:58:37.971Z,9.10
2019-04-29T05:01:08.288Z,9.00
2019-04-29T05:03:38.491Z,9.00
2019-04-29T05:06:08.638Z,9.00
2019-04-29T05:08:38.651Z,9.00
2019-04-29T05:11:08.795Z,9.10
2019-04-29T05:13:38.856Z,9.10
2019-04-29T05:16:09.009Z,9.10
2019-04-29T05:18:39.154Z,8.90
2019-04-29T05:21:09.369Z,8.70
2019-04-29T05:23:41.615Z,8.70
2019-04-29T05:26:11.262Z,8.50
2019-04-29T05:28:41.463Z,8.40
2019-04-29T05:31:11.610Z,8.30
2019-04-29T05:33:41.772Z,8.30
2019-04-29T05:36:13.480Z,8.20
2019-04-29T05:38:45.249Z,8.10
2019-04-29T05:41:15.502Z,8.10
2019-04-29T05:44:05.337Z,8.20
2019-04-29T05:46:42.784Z,8.10
2019-04-29T05:49:14.543Z,8.10
2019-04-29T05:51:51.992Z,8.10
2019-04-29T05:54:26.930Z,8.10
2019-04-29T05:56:57.779Z,8.10
2019-04-29T05:59:27.835Z,8.10
2019-04-29T06:01:57.909Z,8.10
2019-04-29T06:04:28.773Z,8.00
2019-04-29T06:06:59.007Z,8.10
2019-04-29T06:09:29.208Z,8.10
2019-04-29T06:11:59.308Z,8.10
2019-04-29T06:14:29.537Z,8.10
2019-04-29T06:17:03.004Z,8.10
2019-04-29T06:19:35.000Z,8.10
2019-04-29T06:22:03.982Z,8.10
2019-04-29T06:24:36.961Z,8.10
2019-04-29T06:27:05.864Z,8.20
2019-04-29T06:29:36.092Z,8.20
2019-04-29T06:32:06.240Z,8.30
2019-04-29T06:34:40.031Z,8.40
2019-04-29T06:37:08.078Z,8.30
2019-04-29T06:39:38.289Z,8.40
2019-04-29T06:42:08.609Z,8.40
2019-04-29T06:44:38.693Z,8.50
2019-04-29T06:47:08.775Z,8.60
2019-04-29T06:49:38.908Z,8.60
2019-04-29T06:52:09.052Z,8.70
2019-04-29T06:54:39.175Z,8.80
2019-04-29T06:57:09.325Z,9.00
2019-04-29T06:59:42.976Z,9.00
2019-04-29T07:02:14.416Z,9.10
2019-04-29T07:04:43.134Z,9.30
2019-04-29T07:07:13.132Z,9.50
2019-04-29T07:09:43.373Z,9.50
2019-04-29T07:12:13.985Z,9.60
2019-04-29T07:14:44.268Z,9.50
2019-04-29T07:17:14.552Z,9.50
2019-04-29T07:19:44.623Z,9.60
2019-04-29T07:22:14.876Z,9.50
2019-04-29T07:24:45.201Z,9.70
2019-04-29T07:27:16.354Z,9.60
2019-04-29T07:29:46.548Z,9.60
2019-04-29T07:32:16.764Z,9.80
2019-04-29T07:34:46.964Z,9.90
2019-04-29T07:37:17.076Z,9.90
2019-04-29T07:39:47.255Z,10.20
2019-04-29T07:42:17.362Z,10.20
2019-04-29T07:45:05.113Z,10.50
2019-04-29T07:47:34.867Z,10.20
2019-04-29T07:50:06.236Z,10.20
2019-04-29T07:52:36.440Z,10.10
2019-04-29T07:55:07.693Z,10.30
2019-04-29T07:57:37.852Z,10.10
2019-04-29T08:00:13.037Z,10.20
2019-04-29T08:02:41.821Z,10.20
2019-04-29T08:05:12.033Z,10.10
2019-04-29T08:07:42.732Z,10.10
2019-04-29T08:10:23.272Z,9.90
2019-04-29T08:12:45.077Z,9.90
2019-04-29T08:15:15.260Z,9.90
2019-04-29T08:17:45.396Z,10.10
2019-04-29T08:20:17.085Z,10.30
2019-04-29T08:22:47.319Z,10.40
2019-04-29T08:25:17.551Z,10.50
2019-04-29T08:27:47.719Z,11.10
2019-04-29T08:30:18.342Z,11.00
2019-04-29T08:32:48.593Z,11.10
2019-04-29T08:35:18.745Z,11.10
2019-04-29T08:37:49.003Z,11.40
2019-04-29T08:40:19.153Z,11.60
2019-04-29T08:42:51.009Z,11.80
2019-04-29T08:45:28.480Z,11.60
2019-04-29T08:48:00.166Z,11.40
2019-04-29T08:50:30.384Z,11.50
2019-04-29T08:53:00.474Z,11.10
2019-04-29T08:55:31.419Z,10.90
2019-04-29T08:58:02.413Z,11.10
2019-04-29T09:00:32.701Z,11.20
2019-04-29T09:03:02.833Z,11.20
2019-04-29T09:05:32.988Z,10.90
2019-04-29T09:08:03.128Z,10.90
2019-04-29T09:10:36.723Z,11.70
2019-04-29T09:13:05.266Z,12.10
2019-04-29T09:15:35.421Z,12.60
2019-04-29T09:18:05.665Z,12.70
2019-04-29T09:20:35.955Z,12.90
2019-04-29T09:23:10.269Z,13.10
2019-04-29T09:25:42.070Z,12.70
2019-04-29T09:28:18.024Z,12.40
2019-04-29T09:30:45.811Z,12.40
2019-04-29T09:33:16.053Z,12.20
2019-04-29T09:35:46.216Z,12.20
2019-04-29T09:38:16.383Z,12.40
2019-04-29T09:40:48.548Z,12.40
2019-04-29T09:43:36.195Z,12.30
2019-04-29T09:46:08.002Z,12.50
2019-04-29T09:48:38.155Z,12.30
2019-04-29T09:51:17.253Z,12.60
2019-04-29T09:53:40.084Z,12.50
2019-04-29T09:56:10.315Z,12.20
2019-04-29T09:58:40.543Z,12.60
2019-04-29T10:01:20.888Z,12.40
2019-04-29T10:03:55.933Z,13.10
2019-04-29T10:06:27.743Z,13.20
2019-04-29T10:08:58.068Z,13.00
2019-04-29T10:11:28.541Z,13.00
2019-04-29T10:13:58.710Z,13.10
2019-04-29T10:16:42.495Z,12.80
2019-04-29T10:19:26.220Z,12.90
2019-04-29T10:21:56.527Z,13.20
2019-04-29T10:24:26.749Z,13.40
2019-04-29T10:26:56.998Z,14.20
2019-04-29T10:29:28.805Z,13.80
2019-04-29T10:32:02.458Z,14.10
2019-04-29T10:34:31.702Z,14.30
2019-04-29T10:37:02.735Z,14.70
2019-04-29T10:39:46.105Z,15.00
2019-04-29T10:42:18.026Z,14.50
2019-04-29T10:44:58.776Z,14.70
2019-04-29T10:47:45.313Z,14.70
2019-04-29T10:50:20.061Z,14.60
2019-04-29T10:52:50.237Z,14.90
2019-04-29T10:55:20.746Z,15.40
2019-04-29T10:57:51.459Z,15.70
2019-04-29T11:00:44.216Z,15.10
2019-04-29T11:03:14.615Z,16.00
2019-04-29T11:05:59.821Z,15.40
2019-04-29T11:08:22.737Z,15.80
2019-04-29T11:11:01.833Z,15.70
2019-04-29T11:13:25.340Z,16.40
2019-04-29T11:15:55.665Z,16.80
2019-04-29T11:18:25.820Z,16.90
2019-04-29T11:20:56.065Z,17.40
2019-04-29T11:23:28.018Z,17.60
2019-04-29T11:26:15.612Z,17.40
2019-04-29T11:28:46.951Z,17.80
2019-04-29T11:31:19.326Z,17.70
2019-04-29T11:34:11.681Z,17.20
2019-04-29T11:36:43.947Z,16.70
2019-04-29T11:39:15.549Z,17.00
2019-04-29T11:41:49.772Z,17.10
2019-04-29T11:44:21.949Z,17.10
2019-04-29T11:46:50.687Z,17.40
2019-04-29T11:49:22.508Z,16.60
2019-04-29T11:52:08.523Z,16.80
2019-04-29T11:54:24.588Z,17.10
2019-04-29T11:56:54.833Z,17.00
2019-04-29T11:59:42.534Z,16.20
2019-04-29T12:02:14.361Z,16.00
2019-04-29T12:04:55.155Z,16.20
2019-04-29T12:07:31.686Z,16.10
2019-04-29T12:09:57.224Z,15.80
2019-04-29T12:12:27.454Z,16.30
2019-04-29T12:14:59.231Z,15.90
2019-04-29T12:17:36.626Z,15.90
2019-04-29T12:20:13.439Z,16.10
2019-04-29T12:22:48.643Z,15.90
2019-04-29T12:25:15.575Z,15.70
2019-04-29T12:27:45.873Z,16.30
2019-04-29T12:30:17.878Z,16.90
2019-04-29T12:33:05.802Z,16.80
2019-04-29T12:35:51.924Z,17.10
2019-04-29T12:38:39.762Z,17.00
2019-04-29T12:41:20.530Z,16.70
2019-04-29T12:43:59.638Z,16.30
2019-04-29T12:46:40.680Z,16.00
2019-04-29T12:49:13.519Z,16.10
2019-04-29T12:51:42.748Z,16.00
2019-04-29T12:54:12.933Z,16.00
2019-04-29T12:56:47.590Z,16.40
2019-04-29T12:59:14.752Z,16.40
2019-04-29T13:01:54.061Z,16.00
2019-04-29T13:04:22.687Z,16.10
2019-04-29T13:07:00.156Z,16.00
2019-04-29T13:09:34.814Z,15.90
2019-04-29T13:12:17.807Z,15.60
2019-04-29T13:14:39.098Z,16.20
2019-04-29T13:17:14.855Z,16.00
2019-04-29T13:20:00.701Z,15.90
2019-04-29T13:22:21.847Z,15.50
2019-04-29T13:24:53.028Z,15.80
2019-04-29T13:27:25.385Z,15.70
2019-04-29T13:29:55.075Z,15.80
2019-04-29T13:32:29.285Z,15.90
2019-04-29T13:35:00.424Z,15.60
2019-04-29T13:37:30.588Z,15.20
2019-04-29T13:40:00.726Z,15.30
2019-04-29T13:42:30.920Z,15.40
2019-04-29T13:45:07.964Z,15.60
2019-04-29T13:47:35.898Z,15.70
2019-04-29T13:50:18.115Z,15.40
2019-04-29T13:52:40.410Z,15.20
2019-04-29T13:55:17.622Z,15.30
2019-04-29T13:57:45.112Z,15.60
2019-04-29T14:00:19.925Z,15.40
2019-04-29T14:02:59.256Z,15.20
2019-04-29T14:05:32.526Z,16.00
2019-04-29T14:08:00.995Z,16.40
2019-04-29T14:10:31.114Z,16.00
2019-04-29T14:13:10.470Z,15.60
2019-04-29T14:15:33.937Z,15.90
2019-04-29T14:18:06.896Z,15.90
2019-04-29T14:20:37.627Z,15.90
2019-04-29T14:23:07.762Z,16.30
2019-04-29T14:25:38.208Z,16.50
2019-04-29T14:28:08.321Z,16.60
2019-04-29T14:30:39.373Z,16.90
2019-04-29T14:33:10.539Z,17.30
2019-04-29T14:35:48.331Z,17.40
2019-04-29T14:38:16.925Z,17.30
2019-04-29T14:40:47.227Z,17.40
2019-04-29T14:43:34.950Z,17.70
2019-04-29T14:46:16.823Z,17.40
2019-04-29T14:48:51.607Z,17.30
2019-04-29T14:51:21.829Z,17.30
2019-04-29T14:53:56.712Z,16.70
2019-04-29T14:56:23.970Z,16.70
2019-04-29T14:59:06.116Z,16.60
2019-04-29T15:01:33.610Z,16.80
2019-04-29T15:04:18.415Z,16.70
2019-04-29T15:06:46.051Z,16.90
2019-04-29T15:09:18.149Z,16.80
2019-04-29T15:11:59.083Z,17.10
2019-04-29T15:14:42.832Z,16.80
2019-04-29T15:17:14.689Z,16.60
2019-04-29T15:19:58.364Z,16.50
2019-04-29T15:22:30.301Z,16.40
2019-04-29T15:25:00.546Z,16.60
2019-04-29T15:27:30.776Z,16.60
2019-04-29T15:30:00.928Z,16.30
2019-04-29T15:32:31.876Z,16.50
2019-04-29T15:35:02.105Z,16.30
2019-04-29T15:37:33.228Z,16.20
2019-04-29T15:40:05.072Z,16.30
2019-04-29T15:42:38.048Z,16.50
2019-04-29T15:45:07.485Z,16.60
2019-04-29T15:47:41.707Z,16.80
2019-04-29T15:50:18.477Z,17.10
2019-04-29T15:52:41.207Z,17.20
2019-04-29T15:55:11.488Z,16.90
2019-04-29T15:57:49.700Z,16.60
2019-04-29T16:00:22.215Z,16.60
2019-04-29T16:02:45.585Z,16.80
2019-04-29T16:05:36.148Z,17.20
2019-04-29T16:08:10.755Z,18.60
2019-04-29T16:10:51.682Z,21.20
2019-04-29T16:13:27.758Z,22.70
2019-04-29T16:15:54.822Z,23.10
2019-04-29T16:18:24.937Z,22.90
2019-04-29T16:20:55.236Z,23.50
2019-04-29T16:23:25.336Z,22.60
2019-04-29T16:25:55.333Z,23.00
2019-04-29T16:28:31.778Z,22.00
2019-04-29T16:30:57.586Z,21.20
2019-04-29T16:33:27.828Z,21.60
2019-04-29T16:36:04.760Z,23.10
2019-04-29T16:38:29.997Z,22.40
2019-04-29T16:41:19.552Z,21.80
2019-04-29T16:43:52.687Z,22.20
2019-04-29T16:46:35.606Z,22.20
2019-04-29T16:48:56.428Z,20.90
2019-04-29T16:51:26.684Z,20.90
2019-04-29T16:53:56.899Z,20.70
2019-04-29T16:56:26.989Z,20.50
2019-04-29T16:58:57.087Z,20.60
2019-04-29T17:01:27.322Z,20.20
2019-04-29T17:04:04.914Z,20.30
2019-04-29T17:06:29.539Z,20.40
2019-04-29T17:09:04.976Z,20.50
2019-04-29T17:11:36.336Z,19.10
2019-04-29T17:14:10.075Z,19.20
2019-04-29T17:16:38.270Z,19.30
2019-04-29T17:19:08.503Z,19.80
2019-04-29T17:21:38.662Z,19.80
2019-04-29T17:24:08.879Z,20.30
2019-04-29T17:26:40.745Z,20.40
2019-04-29T17:31:57.693Z,19.60
2019-04-29T17:34:55.887Z,18.40
2019-04-29T17:35:17.103Z,20.50
2019-04-29T17:36:57.346Z,18.40
2019-04-29T17:39:27.859Z,18.60
2019-04-29T17:41:58.007Z,18.80
2019-04-29T17:44:44.761Z,17.40
2019-04-29T17:47:33.648Z,16.30
2019-04-29T17:50:09.200Z,15.60
2019-04-29T17:52:39.575Z,14.90
2019-04-29T17:55:37.601Z,14.30
2019-04-29T17:58:03.645Z,13.90
2019-04-29T18:00:56.128Z,13.60
2019-04-29T18:03:41.662Z,13.20
2019-04-29T18:06:24.066Z,13.00
2019-04-29T18:09:02.502Z,12.90
2019-04-29T18:11:48.803Z,12.80
2019-04-29T18:14:06.660Z,12.60
2019-04-29T18:16:39.529Z,12.50
2019-04-29T18:19:17.333Z,12.30
2019-04-29T18:21:59.844Z,12.20
2019-04-29T18:24:40.304Z,12.00
2019-04-29T18:27:17.803Z,11.90
2019-04-29T18:29:48.116Z,11.80
2019-04-29T18:32:18.354Z,11.70
2019-04-29T18:34:48.650Z,11.60
2019-04-29T18:37:19.188Z,11.50
2019-04-29T18:39:49.420Z,11.40
2019-04-29T18:42:19.647Z,11.30
2019-04-29T18:44:57.704Z,11.20
2019-04-29T18:47:23.060Z,11.20
2019-04-29T18:49:53.367Z,11.00
2019-04-29T18:52:27.776Z,11.00
2019-04-29T18:54:55.253Z,10.90
2019-04-29T18:57:30.531Z,10.90
2019-04-29T18:59:57.148Z,10.80
2019-04-29T19:02:27.705Z,10.80
2019-04-29T19:04:59.601Z,10.80
2019-04-29T19:07:31.900Z,10.80
2019-04-29T19:10:01.514Z,10.70
2019-04-29T19:12:31.828Z,10.80
2019-04-29T19:15:05.149Z,10.80
2019-04-29T19:17:36.681Z,10.80
2019-04-29T19:20:08.632Z,10.80
2019-04-29T19:22:39.953Z,10.70
2019-04-29T19:25:11.989Z,10.80
2019-04-29T19:27:45.399Z,10.70
2019-04-29T19:30:20.867Z,10.60
2019-04-29T19:32:47.346Z,10.50
2019-04-29T19:35:17.470Z,10.50
2019-04-29T19:37:47.628Z,10.50
2019-04-29T19:40:19.148Z,10.60
2019-04-29T19:42:49.391Z,10.60
2019-04-29T19:45:19.549Z,10.40
2019-04-29T19:47:53.169Z,10.40
2019-04-29T19:50:21.590Z,10.30
2019-04-29T19:52:51.747Z,10.20
2019-04-29T19:55:21.923Z,10.10
2019-04-29T19:57:52.825Z,10.00
2019-04-29T20:00:28.427Z,9.90
2019-04-29T20:02:56.883Z,9.80
2019-04-29T20:05:40.524Z,9.70
2019-04-29T20:08:19.346Z,9.70
2019-04-29T20:10:48.165Z,9.60
2019-04-29T20:13:15.411Z,9.60
2019-04-29T20:16:10.937Z,9.80
2019-04-29T20:18:58.803Z,9.80
2019-04-29T20:21:36.826Z,9.80
2019-04-29T20:25:21.935Z,9.80
2019-04-29T20:26:38.993Z,9.90
2019-04-29T20:29:09.512Z,10.00
2019-04-29T20:31:48.604Z,10.20
2019-04-29T20:34:11.710Z,10.30
2019-04-29T20:36:43.150Z,10.20
2019-04-29T20:39:18.328Z,10.20
2019-04-29T20:41:48.760Z,10.30
2019-04-29T20:44:17.856Z,10.40
2019-04-29T20:47:12.865Z,10.30
2019-04-29T20:49:20.024Z,10.30
2019-04-29T20:51:52.981Z,10.30
2019-04-29T20:54:27.652Z,10.30
2019-04-29T20:57:05.001Z,10.40
2019-04-29T20:59:29.664Z,10.30
2019-04-29T21:02:12.090Z,10.30
2019-04-29T21:04:45.712Z,10.20
2019-04-29T21:07:08.678Z,10.20
2019-04-29T21:09:38.762Z,10.10
2019-04-29T21:12:10.496Z,10.00
2019-04-29T21:14:46.420Z,10.10
2019-04-29T21:17:28.819Z,9.90
2019-04-29T21:19:48.498Z,9.90
2019-04-29T21:22:22.453Z,9.80
2019-04-29T21:24:53.952Z,9.90
2019-04-29T21:27:23.478Z,10.00
2019-04-29T21:29:54.209Z,9.90
2019-04-29T21:32:30.460Z,10.10
2019-04-29T21:35:18.418Z,10.10
2019-04-29T21:37:48.193Z,10.10
2019-04-29T21:40:24.240Z,10.10
2019-04-29T21:42:55.874Z,10.10
2019-04-29T21:45:25.986Z,10.00
2019-04-29T21:47:56.157Z,9.80
2019-04-29T21:50:29.010Z,9.80
2019-04-29T21:53:01.827Z,9.80
2019-04-29T21:55:30.005Z,9.90
2019-04-29T21:58:00.334Z,10.00
2019-04-29T22:00:30.664Z,10.00
2019-04-29T22:03:02.422Z,10.10
2019-04-29T22:05:32.824Z,10.10
2019-04-29T22:08:03.050Z,10.10
2019-04-29T22:10:35.090Z,10.10
2019-04-29T22:13:05.378Z,10.10
2019-04-29T22:15:39.078Z,10.20
2019-04-29T22:18:13.630Z,10.10
2019-04-29T22:20:42.080Z,10.20
2019-04-29T22:23:13.427Z,10.20
2019-04-29T22:25:45.689Z,10.20
2019-04-29T22:28:19.741Z,10.20
2019-04-29T22:30:49.916Z,10.20
2019-04-29T22:33:20.286Z,10.20
2019-04-29T22:35:50.459Z,10.20
2019-04-29T22:38:20.467Z,10.20
2019-04-29T22:40:51.644Z,10.10
2019-04-29T22:43:29.042Z,10.10
2019-04-29T22:46:00.277Z,10.00
2019-04-29T22:48:30.374Z,10.00
2019-04-29T22:51:00.687Z,9.90
2019-04-29T22:53:30.894Z,9.90
2019-04-29T22:56:01.049Z,9.90
2019-04-29T22:58:31.275Z,9.80
2019-04-29T23:01:02.472Z,9.70
2019-04-29T23:03:37.420Z,9.70
2019-04-29T23:06:08.408Z,9.60
2019-04-29T23:08:38.240Z,9.60
2019-04-29T23:11:08.500Z,9.50
2019-04-29T23:13:38.790Z,9.40
2019-04-29T23:16:08.970Z,9.30
2019-04-29T23:18:42.264Z,9.30
2019-04-29T23:21:28.732Z,9.20
2019-04-29T23:24:17.329Z,9.30
2019-04-29T23:26:47.308Z,9.30
2019-04-29T23:29:17.475Z,9.20
2019-04-29T23:31:47.690Z,9.10
2019-04-29T23:34:17.863Z,9.20
2019-04-29T23:36:48.892Z,9.20
2019-04-29T23:39:19.312Z,9.20
2019-04-29T23:41:49.547Z,9.20
2019-04-29T23:44:19.712Z,9.10
2019-04-29T23:46:49.937Z,9.00
2019-04-29T23:49:20.078Z,9.10
2019-04-29T23:51:50.119Z,9.10
2019-04-29T23:54:20.206Z,9.10
2019-04-29T23:57:03.743Z,9.00
2019-04-29T23:59:35.513Z,9.30
